createdAt,value
2023-02-14T00:00:03.359Z,48.59
2023-02-14T00:01:03.345Z,48.67
2023-02-14T00:02:03.359Z,48.66
2023-02-14T00:03:03.360Z,48.7
2023-02-14T00:04:03.359Z,48.68
2023-02-14T00:05:03.345Z,48.56
2023-02-14T00:06:03.360Z,48.49
2023-02-14T00:07:03.360Z,48.41
2023-02-14T00:08:03.346Z,48.57
2023-02-14T00:09:03.345Z,48.43
2023-02-14T00:10:03.359Z,48.43
2023-02-14T00:11:03.360Z,48.37
2023-02-14T00:12:03.346Z,48.3
2023-02-14T00:13:03.346Z,48.29
2023-02-14T00:14:03.361Z,48.42
2023-02-14T00:15:03.361Z,48.38
2023-02-14T00:16:03.346Z,48.31
2023-02-14T00:17:03.360Z,48.25
2023-02-14T00:18:03.361Z,48.21
2023-02-14T00:19:03.360Z,48.17
2023-02-14T00:20:03.346Z,48.04
2023-02-14T00:21:03.360Z,48.03
2023-02-14T00:22:03.361Z,48.06
2023-02-14T00:23:03.361Z,47.94
2023-02-14T00:24:03.347Z,48.05
2023-02-14T00:25:03.361Z,48.1
2023-02-14T00:26:03.362Z,48.16
2023-02-14T00:27:03.362Z,48.03
2023-02-14T00:28:03.347Z,48
2023-02-14T00:29:03.362Z,48.04
2023-02-14T00:30:03.362Z,48.08
2023-02-14T00:31:03.347Z,48.22
2023-02-14T00:32:03.347Z,48.35
2023-02-14T00:33:03.362Z,48.4
2023-02-14T00:34:03.364Z,48.51
2023-02-14T00:35:03.348Z,48.42
2023-02-14T00:36:03.362Z,48.35
2023-02-14T00:37:03.363Z,48.57
2023-02-14T00:38:03.363Z,48.44
2023-02-14T00:39:03.348Z,48.44
2023-02-14T00:40:03.362Z,48.36
2023-02-14T00:41:03.388Z,48.26
2023-02-14T00:42:03.363Z,48.39
2023-02-14T00:43:03.348Z,48.26
2023-02-14T00:44:03.362Z,48.2
2023-02-14T00:45:03.364Z,48.25
2023-02-14T00:46:03.363Z,48.22
2023-02-14T00:47:03.350Z,48.32
2023-02-14T00:48:03.414Z,48.28
2023-02-14T00:49:03.365Z,48.3
2023-02-14T00:50:03.349Z,48.26
2023-02-14T00:51:03.349Z,48.18
2023-02-14T00:52:03.364Z,48.08
2023-02-14T00:53:03.364Z,47.97
2023-02-14T00:54:03.349Z,48.02
2023-02-14T00:55:17.858Z,48.05
2023-02-14T00:56:03.364Z,48.01
2023-02-14T00:57:03.365Z,48.44
2023-02-14T00:58:03.350Z,48.22
2023-02-14T00:59:03.364Z,48.21
2023-02-14T01:00:03.365Z,48.11
2023-02-14T01:01:03.364Z,48.21
2023-02-14T01:02:03.351Z,48.16
2023-02-14T01:03:03.364Z,48.07
2023-02-14T01:04:03.366Z,48.32
2023-02-14T01:05:19.841Z,48.24
2023-02-14T01:06:11.321Z,48.2
2023-02-14T01:07:03.364Z,48.07
2023-02-14T01:08:03.367Z,48.3
2023-02-14T01:09:03.366Z,48.23
2023-02-14T01:10:03.351Z,48.13
2023-02-14T01:11:03.365Z,48.08
2023-02-14T01:12:03.367Z,48.32
2023-02-14T01:13:03.351Z,48.21
2023-02-14T01:14:03.351Z,48.32
2023-02-14T01:15:03.365Z,48.22
2023-02-14T01:16:03.366Z,48.22
2023-02-14T01:17:03.351Z,48.33
2023-02-14T01:18:03.351Z,48.37
2023-02-14T01:19:03.367Z,48.55
2023-02-14T01:20:03.367Z,48.39
2023-02-14T01:21:03.352Z,48.3
2023-02-14T01:22:03.367Z,48.36
2023-02-14T01:23:03.366Z,48.41
2023-02-14T01:24:03.367Z,48.4
2023-02-14T01:25:03.366Z,48.39
2023-02-14T01:26:03.366Z,48.44
2023-02-14T01:27:03.368Z,48.52
2023-02-14T01:28:03.367Z,48.58
2023-02-14T01:30:03.367Z,48.64
2023-02-14T01:31:03.368Z,48.61
2023-02-14T01:32:03.353Z,48.56
2023-02-14T01:33:03.353Z,48.61
2023-02-14T01:34:03.368Z,48.77
2023-02-14T01:35:03.368Z,48.64
2023-02-14T01:36:03.353Z,48.76
2023-02-14T01:37:03.353Z,48.76
2023-02-14T01:38:03.368Z,48.82
2023-02-14T01:39:03.368Z,48.77
2023-02-14T01:40:03.354Z,48.81
2023-02-14T01:41:03.367Z,48.77
2023-02-14T01:42:03.368Z,48.66
2023-02-14T01:43:03.368Z,48.82
2023-02-14T01:44:03.354Z,48.79
2023-02-14T01:45:03.368Z,48.72
2023-02-14T01:46:03.370Z,48.9
2023-02-14T01:47:03.369Z,48.62
2023-02-14T01:48:03.354Z,48.73
2023-02-14T01:49:03.368Z,48.83
2023-02-14T01:50:03.369Z,48.8
2023-02-14T01:51:03.369Z,48.82
2023-02-14T01:52:03.354Z,48.74
2023-02-14T01:53:03.369Z,48.59
2023-02-14T01:54:03.370Z,48.73
2023-02-14T01:55:03.355Z,48.6
2023-02-14T01:56:03.355Z,48.61
2023-02-14T01:57:03.370Z,48.61
2023-02-14T01:58:03.371Z,48.43
2023-02-14T01:59:03.355Z,48.57
2023-02-14T02:00:03.370Z,48.55
2023-02-14T02:01:03.370Z,48.53
2023-02-14T02:02:03.369Z,48.49
2023-02-14T02:03:03.355Z,48.42
2023-02-14T02:04:03.369Z,48.47
2023-02-14T02:05:03.395Z,48.43
2023-02-14T02:06:03.369Z,48.63
2023-02-14T02:07:03.356Z,48.69
2023-02-14T02:08:03.371Z,48.83
2023-02-14T02:09:03.372Z,48.72
2023-02-14T02:10:03.371Z,48.61
2023-02-14T02:11:03.356Z,48.58
2023-02-14T02:12:03.371Z,48.66
2023-02-14T02:13:03.371Z,48.55
2023-02-14T02:14:03.356Z,48.49
2023-02-14T02:15:03.356Z,48.45
2023-02-14T02:16:11.313Z,48.5
2023-02-14T02:17:03.371Z,48.36
2023-02-14T02:18:03.357Z,48.38
2023-02-14T02:19:03.357Z,48.38
2023-02-14T02:20:03.371Z,48.55
2023-02-14T02:21:03.373Z,48.45
2023-02-14T02:22:03.358Z,48.52
2023-02-14T02:23:03.372Z,48.48
2023-02-14T02:24:03.372Z,48.58
2023-02-14T02:25:03.371Z,48.57
2023-02-14T02:26:03.357Z,48.57
2023-02-14T02:27:03.372Z,48.54
2023-02-14T02:28:03.372Z,48.38
2023-02-14T02:29:03.371Z,48.42
2023-02-14T02:30:03.357Z,48.34
2023-02-14T02:31:03.372Z,48.48
2023-02-14T02:32:03.374Z,48.24
2023-02-14T02:33:03.372Z,48.33
2023-02-14T02:34:03.358Z,48.19
2023-02-14T02:35:03.372Z,48.38
2023-02-14T02:36:03.374Z,48.14
2023-02-14T02:37:03.358Z,48.28
2023-02-14T02:38:03.358Z,48.16
2023-02-14T02:39:03.373Z,48.11
2023-02-14T02:40:03.373Z,48.08
2023-02-14T02:41:03.358Z,48.12
2023-02-14T02:42:03.358Z,48.15
2023-02-14T02:43:03.373Z,48.15
2023-02-14T02:44:03.373Z,48.27
2023-02-14T02:45:19.837Z,48.22
2023-02-14T02:46:03.373Z,48.18
2023-02-14T02:47:03.374Z,48.2
2023-02-14T02:48:03.373Z,48.15
2023-02-14T02:49:03.360Z,48
2023-02-14T02:50:03.373Z,48.05
2023-02-14T02:51:03.417Z,47.97
2023-02-14T02:52:03.374Z,48.14
2023-02-14T02:53:03.359Z,48.15
2023-02-14T02:54:03.374Z,48.2
2023-02-14T02:55:03.374Z,48.17
2023-02-14T02:56:03.375Z,48.16
2023-02-14T02:57:03.361Z,48.21
2023-02-14T02:58:03.375Z,48.23
2023-02-14T02:59:03.375Z,48.16
2023-02-14T03:00:03.361Z,48.17
2023-02-14T03:01:03.360Z,48.2
2023-02-14T03:02:03.375Z,48.16
2023-02-14T03:03:03.375Z,48.29
2023-02-14T03:04:03.360Z,48.18
2023-02-14T03:05:03.374Z,48.14
2023-02-14T03:06:03.375Z,48.13
2023-02-14T03:07:03.375Z,48.05
2023-02-14T03:08:03.361Z,48.03
2023-02-14T03:09:03.375Z,48.04
2023-02-14T03:10:03.376Z,47.95
2023-02-14T03:11:03.375Z,48.03
2023-02-14T03:12:03.361Z,48.15
2023-02-14T03:13:03.375Z,48.32
2023-02-14T03:14:03.376Z,48.22
2023-02-14T03:15:03.375Z,48.14
2023-02-14T03:16:17.655Z,48.21
2023-02-14T03:17:03.375Z,48.12
2023-02-14T03:18:03.377Z,48.13
2023-02-14T03:19:03.375Z,48.12
2023-02-14T03:20:03.362Z,48.17
2023-02-14T03:21:03.377Z,48.18
2023-02-14T03:22:03.377Z,48.28
2023-02-14T03:23:03.362Z,48.39
2023-02-14T03:24:03.363Z,48.44
2023-02-14T03:25:03.376Z,48.46
2023-02-14T03:26:03.442Z,48.44
2023-02-14T03:27:03.362Z,48.34
2023-02-14T03:28:03.376Z,48.33
2023-02-14T03:29:03.376Z,48.4
2023-02-14T03:30:03.377Z,48.2
2023-02-14T03:31:03.362Z,48.15
2023-02-14T03:32:03.376Z,48.27
2023-02-14T03:33:03.403Z,48.1
2023-02-14T03:34:03.377Z,48.21
2023-02-14T03:35:03.363Z,48.33
2023-02-14T03:36:03.378Z,48.25
2023-02-14T03:37:03.378Z,48.29
2023-02-14T03:38:03.377Z,48.42
2023-02-14T03:39:03.363Z,48.44
2023-02-14T03:40:03.428Z,48.51
2023-02-14T03:41:03.379Z,48.59
2023-02-14T03:42:03.363Z,48.46
2023-02-14T03:43:03.363Z,48.42
2023-02-14T03:44:03.378Z,48.59
2023-02-14T03:45:03.378Z,48.29
2023-02-14T03:46:03.364Z,48.26
2023-02-14T03:47:03.445Z,48.06
2023-02-14T03:48:03.379Z,48.29
2023-02-14T03:49:03.379Z,48.16
2023-02-14T03:50:03.364Z,48.09
2023-02-14T03:51:03.379Z,48.15
2023-02-14T03:52:03.379Z,48.28
2023-02-14T03:53:03.378Z,48.2
2023-02-14T03:54:03.365Z,48.2
2023-02-14T03:55:03.379Z,48.25
2023-02-14T03:56:03.379Z,48.2
2023-02-14T03:57:03.379Z,48.2
2023-02-14T03:58:03.364Z,48.2
2023-02-14T03:59:03.380Z,48.1
2023-02-14T04:00:03.380Z,48.1
2023-02-14T04:01:03.365Z,48.1
2023-02-14T04:02:03.365Z,48.05
2023-02-14T04:03:03.380Z,47.92
2023-02-14T04:04:03.381Z,47.98
2023-02-14T04:05:03.365Z,47.95
2023-02-14T04:06:03.365Z,47.85
2023-02-14T04:07:03.380Z,47.8
2023-02-14T04:08:03.380Z,47.86
2023-02-14T04:09:03.365Z,47.96
2023-02-14T04:10:03.379Z,48.02
2023-02-14T04:11:03.379Z,48.01
2023-02-14T04:12:03.381Z,48.23
2023-02-14T04:13:03.366Z,48.32
2023-02-14T04:14:03.380Z,48.21
2023-02-14T04:15:03.381Z,48.31
2023-02-14T04:16:23.655Z,48.22
2023-02-14T04:17:03.366Z,48.23
2023-02-14T04:18:03.380Z,48.15
2023-02-14T04:19:03.381Z,48.06
2023-02-14T04:20:03.381Z,48.11
2023-02-14T04:21:03.366Z,48.07
2023-02-14T04:22:03.381Z,48.15
2023-02-14T04:23:19.858Z,48.31
2023-02-14T04:24:03.366Z,48.28
2023-02-14T04:25:03.367Z,48.38
2023-02-14T04:26:03.382Z,48.41
2023-02-14T04:27:03.383Z,48.58
2023-02-14T04:28:03.367Z,48.41
2023-02-14T04:29:03.367Z,48.45
2023-02-14T04:30:03.382Z,48.57
2023-02-14T04:31:03.382Z,48.41
2023-02-14T04:32:03.367Z,48.33
2023-02-14T04:33:03.382Z,48.28
2023-02-14T04:34:03.382Z,48.29
2023-02-14T04:35:03.382Z,48.17
2023-02-14T04:36:03.367Z,48.2
2023-02-14T04:37:03.381Z,48.28
2023-02-14T04:38:03.382Z,48.26
2023-02-14T04:39:03.382Z,48.13
2023-02-14T04:40:03.368Z,48.12
2023-02-14T04:41:03.382Z,47.93
2023-02-14T04:42:03.384Z,48.07
2023-02-14T04:43:03.382Z,48.07
2023-02-14T04:44:03.369Z,48.13
2023-02-14T04:45:03.382Z,48.1
2023-02-14T04:46:03.384Z,47.93
2023-02-14T04:47:03.368Z,48.05
2023-02-14T04:48:03.368Z,48.17
2023-02-14T04:49:03.382Z,48.42
2023-02-14T04:50:03.383Z,48.2
2023-02-14T04:51:03.368Z,48.2
2023-02-14T04:52:03.384Z,48.18
2023-02-14T04:53:03.384Z,48.2
2023-02-14T04:54:03.383Z,48.23
2023-02-14T04:55:03.370Z,48.08
2023-02-14T04:56:03.383Z,47.98
2023-02-14T04:57:03.410Z,48.14
2023-02-14T04:58:03.383Z,48.29
2023-02-14T04:59:03.369Z,48.37
2023-02-14T05:00:03.383Z,48.62
2023-02-14T05:01:03.384Z,48.66
2023-02-14T05:02:03.384Z,48.45
2023-02-14T05:03:03.369Z,48.5
2023-02-14T05:04:03.432Z,48.39
2023-02-14T05:05:03.385Z,48.54
2023-02-14T05:06:03.370Z,48.53
2023-02-14T05:07:03.370Z,48.44
2023-02-14T05:08:03.384Z,48.41
2023-02-14T05:09:03.385Z,48.41
2023-02-14T05:10:03.370Z,48.38
2023-02-14T05:11:03.408Z,48.4
2023-02-14T05:12:03.385Z,48.33
2023-02-14T05:13:03.384Z,48.27
2023-02-14T05:14:03.371Z,48.24
2023-02-14T05:15:03.384Z,48.26
2023-02-14T05:16:29.654Z,48.47
2023-02-14T05:17:04.658Z,48.25
2023-02-14T05:18:03.371Z,48.41
2023-02-14T05:19:03.385Z,48.3
2023-02-14T05:20:03.385Z,48.45
2023-02-14T05:21:03.385Z,48.25
2023-02-14T05:22:03.372Z,48.27
2023-02-14T05:23:03.385Z,48.45
2023-02-14T05:24:03.386Z,48.33
2023-02-14T05:25:03.385Z,48.23
2023-02-14T05:26:03.372Z,48.34
2023-02-14T05:27:03.409Z,48.44
2023-02-14T05:28:03.387Z,48.32
2023-02-14T05:29:03.372Z,48.43
2023-02-14T05:30:03.371Z,48.46
2023-02-14T05:31:03.386Z,48.54
2023-02-14T05:32:03.387Z,48.46
2023-02-14T05:33:03.372Z,48.52
2023-02-14T05:34:03.410Z,48.5
2023-02-14T05:35:03.387Z,48.44
2023-02-14T05:36:03.386Z,48.41
2023-02-14T05:37:03.372Z,48.44
2023-02-14T05:38:03.386Z,48.4
2023-02-14T05:39:03.387Z,48.43
2023-02-14T05:40:03.386Z,48.19
2023-02-14T05:41:03.372Z,48.3
2023-02-14T05:42:03.386Z,48.35
2023-02-14T05:43:03.388Z,48.31
2023-02-14T05:44:03.387Z,48.44
2023-02-14T05:45:03.372Z,48.37
2023-02-14T05:46:03.387Z,48.44
2023-02-14T05:47:03.388Z,48.4
2023-02-14T05:48:03.373Z,48.33
2023-02-14T05:49:03.373Z,48.36
2023-02-14T05:50:03.388Z,48.42
2023-02-14T05:51:03.388Z,48.24
2023-02-14T05:52:03.373Z,48.18
2023-02-14T05:53:03.373Z,48.09
2023-02-14T05:54:03.388Z,48
2023-02-14T05:55:03.388Z,47.93
2023-02-14T05:56:03.373Z,48.07
2023-02-14T05:57:03.387Z,48.13
2023-02-14T05:58:03.389Z,48.39
2023-02-14T05:59:03.387Z,47.99
2023-02-14T06:00:03.373Z,48.09
2023-02-14T06:01:03.389Z,48.05
2023-02-14T06:02:19.866Z,48.03
2023-02-14T06:03:03.388Z,47.98
2023-02-14T06:04:03.375Z,48.01
2023-02-14T06:05:03.388Z,48.08
2023-02-14T06:06:03.390Z,48.17
2023-02-14T06:07:03.388Z,48
2023-02-14T06:08:03.374Z,47.99
2023-02-14T06:09:03.389Z,48.19
2023-02-14T06:10:03.390Z,48.12
2023-02-14T06:11:03.375Z,48.19
2023-02-14T06:12:03.375Z,48.16
2023-02-14T06:13:03.389Z,48.26
2023-02-14T06:14:03.390Z,48.16
2023-02-14T06:15:03.376Z,48.17
2023-02-14T06:16:19.178Z,48.1
2023-02-14T06:17:10.659Z,48.16
2023-02-14T06:18:03.389Z,48.03
2023-02-14T06:19:03.375Z,48.14
2023-02-14T06:20:03.389Z,48.19
2023-02-14T06:21:03.389Z,48.27
2023-02-14T06:22:03.390Z,48.11
2023-02-14T06:23:03.375Z,48.22
2023-02-14T06:24:03.389Z,48.25
2023-02-14T06:25:03.390Z,48.17
2023-02-14T06:26:03.390Z,48.11
2023-02-14T06:27:03.375Z,48.06
2023-02-14T06:28:03.389Z,48.08
2023-02-14T06:29:03.391Z,48
2023-02-14T06:30:03.403Z,47.91
2023-02-14T06:31:03.376Z,48.01
2023-02-14T06:32:03.391Z,48.07
2023-02-14T06:33:03.391Z,47.96
2023-02-14T06:34:03.376Z,47.88
2023-02-14T06:35:03.376Z,47.89
2023-02-14T06:36:03.391Z,47.74
2023-02-14T06:37:03.456Z,47.93
2023-02-14T06:38:03.376Z,47.87
2023-02-14T06:39:03.390Z,47.86
2023-02-14T06:40:03.391Z,47.96
2023-02-14T06:41:03.390Z,47.92
2023-02-14T06:42:03.376Z,47.91
2023-02-14T06:43:03.391Z,47.99
2023-02-14T06:44:03.418Z,47.99
2023-02-14T06:45:03.392Z,47.98
2023-02-14T06:46:03.378Z,47.87
2023-02-14T06:47:03.391Z,47.85
2023-02-14T06:48:03.392Z,47.8
2023-02-14T06:49:03.391Z,47.72
2023-02-14T06:50:03.377Z,47.66
2023-02-14T06:51:03.392Z,47.67
2023-02-14T06:52:03.393Z,47.81
2023-02-14T06:53:03.377Z,47.86
2023-02-14T06:54:03.377Z,47.93
2023-02-14T06:55:03.392Z,47.96
2023-02-14T06:56:03.393Z,47.85
2023-02-14T06:57:03.378Z,47.88
2023-02-14T06:58:03.392Z,47.9
2023-02-14T06:59:03.392Z,47.83
2023-02-14T07:00:03.392Z,47.97
2023-02-14T07:01:03.378Z,47.93
2023-02-14T07:02:03.392Z,47.92
2023-02-14T07:03:03.393Z,47.89
2023-02-14T07:04:03.393Z,47.73
2023-02-14T07:05:03.378Z,47.83
2023-02-14T07:06:03.392Z,47.84
2023-02-14T07:07:03.393Z,47.77
2023-02-14T07:08:03.393Z,47.77
2023-02-14T07:09:03.378Z,47.79
2023-02-14T07:10:03.392Z,47.73
2023-02-14T07:11:03.393Z,47.77
2023-02-14T07:12:03.379Z,47.69
2023-02-14T07:13:03.379Z,47.78
2023-02-14T07:14:03.394Z,47.85
2023-02-14T07:15:03.394Z,47.76
2023-02-14T07:17:03.379Z,47.75
2023-02-14T07:18:03.394Z,47.57
2023-02-14T07:19:03.417Z,47.65
2023-02-14T07:20:03.379Z,47.61
2023-02-14T07:21:03.393Z,47.58
2023-02-14T07:22:03.394Z,47.74
2023-02-14T07:23:03.394Z,47.48
2023-02-14T07:24:03.379Z,47.48
2023-02-14T07:25:03.394Z,47.46
2023-02-14T07:26:17.827Z,47.51
2023-02-14T07:27:03.395Z,47.58
2023-02-14T07:28:03.380Z,47.68
2023-02-14T07:29:03.394Z,47.71
2023-02-14T07:30:03.395Z,47.96
2023-02-14T07:31:03.394Z,47.7
2023-02-14T07:32:03.380Z,47.69
2023-02-14T07:33:03.394Z,47.6
2023-02-14T07:34:03.396Z,47.67
2023-02-14T07:35:03.380Z,47.58
2023-02-14T07:36:19.859Z,47.63
2023-02-14T07:37:11.340Z,47.8
2023-02-14T07:38:03.396Z,47.56
2023-02-14T07:39:19.859Z,47.6
2023-02-14T07:40:03.381Z,47.69
2023-02-14T07:41:03.396Z,47.83
2023-02-14T07:42:03.397Z,47.69
2023-02-14T07:43:03.381Z,47.71
2023-02-14T07:44:03.381Z,47.71
2023-02-14T07:45:03.396Z,47.72
2023-02-14T07:46:03.395Z,47.85
2023-02-14T07:47:03.381Z,47.84
2023-02-14T07:48:03.396Z,47.84
2023-02-14T07:49:03.395Z,47.92
2023-02-14T07:50:03.395Z,47.97
2023-02-14T07:51:03.381Z,47.85
2023-02-14T07:52:03.396Z,47.84
2023-02-14T07:53:03.398Z,47.88
2023-02-14T07:54:03.397Z,47.94
2023-02-14T07:55:03.382Z,48.02
2023-02-14T07:56:03.397Z,48.09
2023-02-14T07:58:03.411Z,48
2023-02-14T07:59:03.382Z,47.87
2023-02-14T08:00:03.396Z,47.68
2023-02-14T08:01:03.397Z,47.78
2023-02-14T08:02:03.382Z,47.7
2023-02-14T08:03:03.382Z,47.7
2023-02-14T08:04:03.396Z,47.72
2023-02-14T08:05:03.463Z,47.66
2023-02-14T08:06:03.383Z,47.75
2023-02-14T08:07:03.397Z,47.7
2023-02-14T08:08:03.398Z,47.41
2023-02-14T08:09:03.398Z,47.53
2023-02-14T08:10:03.383Z,47.49
2023-02-14T08:11:03.397Z,47.35
2023-02-14T08:12:03.440Z,47.17
2023-02-14T08:13:03.397Z,46.91
2023-02-14T08:14:03.383Z,46.95
2023-02-14T08:15:03.397Z,46.79
2023-02-14T08:16:03.398Z,46.74
2023-02-14T08:17:03.398Z,46.92
2023-02-14T08:18:03.384Z,46.85
2023-02-14T08:19:03.399Z,46.9
2023-02-14T08:20:03.400Z,46.76
2023-02-14T08:21:03.384Z,46.87
2023-02-14T08:22:03.385Z,47
2023-02-14T08:23:03.399Z,47.08
2023-02-14T08:24:03.400Z,47
2023-02-14T08:25:03.384Z,47.01
2023-02-14T08:26:03.398Z,46.94
2023-02-14T08:27:03.398Z,46.67
2023-02-14T08:28:03.399Z,46.85
2023-02-14T08:29:03.385Z,46.74
2023-02-14T08:30:03.399Z,46.65
2023-02-14T08:31:03.399Z,46.79
2023-02-14T08:32:03.400Z,47.05
2023-02-14T08:33:03.385Z,46.96
2023-02-14T08:34:03.399Z,46.89
2023-02-14T08:36:03.399Z,46.89
2023-02-14T08:37:03.385Z,46.93
2023-02-14T08:38:03.399Z,47
2023-02-14T08:39:03.400Z,47.07
2023-02-14T08:40:03.400Z,47.13
2023-02-14T08:41:03.387Z,47.08
2023-02-14T08:42:03.400Z,47.05
2023-02-14T08:43:03.401Z,46.72
2023-02-14T08:44:03.386Z,45.79
2023-02-14T08:45:03.386Z,44.32
2023-02-14T08:46:03.401Z,42.07
2023-02-14T08:47:11.358Z,40.22
2023-02-14T08:48:03.386Z,38.55
2023-02-14T08:49:03.451Z,36.96
2023-02-14T08:50:03.402Z,35.82
2023-02-14T08:51:03.402Z,35.1
2023-02-14T08:52:03.387Z,34.96
2023-02-14T08:53:03.402Z,34.69
2023-02-14T08:54:03.403Z,34.15
2023-02-14T08:55:03.402Z,33.69
2023-02-14T08:56:03.388Z,33.46
2023-02-14T08:57:03.403Z,32.89
2023-02-14T08:58:03.404Z,32.62
2023-02-14T08:59:03.403Z,32.5
2023-02-14T09:00:03.390Z,32.83
2023-02-14T09:01:03.404Z,33.42
2023-02-14T09:02:03.405Z,33.98
2023-02-14T09:03:03.390Z,33.6
2023-02-14T09:04:03.391Z,33.25
2023-02-14T09:05:03.406Z,32.92
2023-02-14T09:06:03.406Z,32.74
2023-02-14T09:07:03.393Z,32.8
2023-02-14T09:08:03.392Z,32.67
2023-02-14T09:09:03.407Z,32.6
2023-02-14T09:10:03.407Z,32.96
2023-02-14T09:11:03.393Z,33.73
2023-02-14T09:12:03.407Z,34.98
2023-02-14T09:13:03.409Z,36
2023-02-14T09:14:03.409Z,36.3
2023-02-14T09:15:03.395Z,36.31
2023-02-14T09:16:03.409Z,36.25
2023-02-14T09:17:03.411Z,36.25
2023-02-14T09:18:03.409Z,36.2
2023-02-14T09:19:03.396Z,35.98
2023-02-14T09:20:03.410Z,36.01
2023-02-14T09:21:03.411Z,35.73
2023-02-14T09:22:03.411Z,35.44
2023-02-14T09:23:03.397Z,35.34
2023-02-14T09:24:03.412Z,35.62
2023-02-14T09:25:03.414Z,35.79
2023-02-14T09:26:03.398Z,35.95
2023-02-14T09:27:03.400Z,36.47
2023-02-14T09:28:03.413Z,36.75
2023-02-14T09:29:03.414Z,36.54
2023-02-14T09:30:03.400Z,36.66
2023-02-14T09:31:03.414Z,36.98
2023-02-14T09:32:03.414Z,37.23
2023-02-14T09:33:03.416Z,37.54
2023-02-14T09:34:03.401Z,37.44
2023-02-14T09:35:03.415Z,37.6
2023-02-14T09:36:03.417Z,37.63
2023-02-14T09:37:03.416Z,37.4
2023-02-14T09:38:03.402Z,37.28
2023-02-14T09:39:03.417Z,37.25
2023-02-14T09:40:03.419Z,36.91
2023-02-14T09:41:03.418Z,36.41
2023-02-14T09:42:03.404Z,36.38
2023-02-14T09:43:03.418Z,36.67
2023-02-14T09:44:03.420Z,36.85
2023-02-14T09:45:03.405Z,37.06
2023-02-14T09:46:03.405Z,37.33
2023-02-14T09:47:17.694Z,37.39
2023-02-14T09:48:03.422Z,37.46
2023-02-14T09:49:03.407Z,37.72
2023-02-14T09:50:03.407Z,38.08
2023-02-14T09:51:03.421Z,38.54
2023-02-14T09:52:03.424Z,38.9
2023-02-14T09:53:03.409Z,38.61
2023-02-14T09:54:03.423Z,37.93
2023-02-14T09:55:03.423Z,37.39
2023-02-14T09:57:03.411Z,37.04
2023-02-14T09:58:03.424Z,36.67
2023-02-14T09:59:03.424Z,36.34
2023-02-14T10:00:03.426Z,36.22
2023-02-14T10:01:03.412Z,36.17
2023-02-14T10:02:03.426Z,36.56
2023-02-14T10:03:03.428Z,36.63
2023-02-14T10:04:03.426Z,36.54
2023-02-14T10:05:03.414Z,36.37
2023-02-14T10:06:03.493Z,36.49
2023-02-14T10:07:03.430Z,36.3
2023-02-14T10:08:03.415Z,36.75
2023-02-14T10:09:03.415Z,36.99
2023-02-14T10:10:03.430Z,36.87
2023-02-14T10:11:03.431Z,37.04
2023-02-14T10:12:03.416Z,37.65
2023-02-14T10:13:03.496Z,38.2
2023-02-14T10:14:03.431Z,38.66
2023-02-14T10:15:03.431Z,39.05
2023-02-14T10:16:03.417Z,38.77
2023-02-14T10:17:03.432Z,38.38
2023-02-14T10:18:03.432Z,38.11
2023-02-14T10:19:03.434Z,37.84
2023-02-14T10:20:03.420Z,37.92
2023-02-14T10:21:03.433Z,37.96
2023-02-14T10:22:03.436Z,37.88
2023-02-14T10:23:03.434Z,37.77
2023-02-14T10:24:03.421Z,37.73
2023-02-14T10:25:03.435Z,38.04
2023-02-14T10:26:03.437Z,37.96
2023-02-14T10:32:03.424Z,36.31
2023-02-14T10:35:03.425Z,40.1
2023-02-14T10:36:03.440Z,41.56
2023-02-14T10:37:03.441Z,43.27
2023-02-14T10:39:03.427Z,46.41
2023-02-14T10:40:03.441Z,47.47
2023-02-14T10:41:03.444Z,48.71
2023-02-14T10:44:03.443Z,50.8
2023-02-14T10:45:03.445Z,51.55
2023-02-14T10:46:03.445Z,52.11
2023-02-14T10:47:23.677Z,52.33
2023-02-14T10:48:03.492Z,52.31
2023-02-14T10:49:03.446Z,52.63
2023-02-14T10:50:03.430Z,52.7
2023-02-14T10:51:03.431Z,53.16
2023-02-14T10:52:03.446Z,53.08
2023-02-14T10:53:03.447Z,53.3
2023-02-14T10:54:03.431Z,53.76
2023-02-14T10:55:03.471Z,53.8
2023-02-14T10:56:03.447Z,53.8
2023-02-14T10:57:03.447Z,53.86
2023-02-14T10:58:03.432Z,53.71
2023-02-14T10:59:03.446Z,53.38
2023-02-14T11:00:03.447Z,53.07
2023-02-14T11:01:03.448Z,53.21
2023-02-14T11:02:03.433Z,53.16
2023-02-14T11:03:03.447Z,52.84
2023-02-14T11:04:03.448Z,53.09
2023-02-14T11:05:03.448Z,53.1
2023-02-14T11:06:03.434Z,52.46
2023-02-14T11:07:03.448Z,51.05
2023-02-14T11:08:03.449Z,49.43
2023-02-14T11:09:03.449Z,47.57
2023-02-14T11:10:03.436Z,46.01
2023-02-14T11:11:03.449Z,44.05
2023-02-14T11:12:03.450Z,42.71
2023-02-14T11:13:03.436Z,41.46
2023-02-14T11:14:03.437Z,40.57
2023-02-14T11:15:03.451Z,39.85
2023-02-14T11:16:03.452Z,39.16
2023-02-14T11:17:03.437Z,38.41
2023-02-14T11:18:03.452Z,37.62
2023-02-14T11:19:03.453Z,36.99
2023-02-14T11:20:03.452Z,36.36
2023-02-14T11:21:03.439Z,36.09
2023-02-14T11:22:03.453Z,36.22
2023-02-14T11:23:03.480Z,36.43
2023-02-14T11:25:03.441Z,36.09
2023-02-14T11:26:03.455Z,36.05
2023-02-14T11:27:03.457Z,36.56
2023-02-14T11:28:03.457Z,36.52
2023-02-14T11:29:03.442Z,36.31
2023-02-14T11:30:03.457Z,36.02
2023-02-14T11:31:03.459Z,35.63
2023-02-14T11:32:03.443Z,35.32
2023-02-14T11:33:03.444Z,35.12
2023-02-14T11:34:03.458Z,35.07
2023-02-14T11:35:03.461Z,34.73
2023-02-14T11:36:03.445Z,34.66
2023-02-14T11:37:03.459Z,35.26
2023-02-14T11:38:03.460Z,35.37
2023-02-14T11:39:03.460Z,35.27
2023-02-14T11:40:03.448Z,35.1
2023-02-14T11:41:03.462Z,34.82
2023-02-14T11:42:03.463Z,34.69
2023-02-14T11:43:03.463Z,34.63
2023-02-14T11:44:03.450Z,34.86
2023-02-14T11:45:03.463Z,35.52
2023-02-14T11:46:03.466Z,36.04
2023-02-14T11:47:29.698Z,36.02
2023-02-14T11:48:04.703Z,35.83
2023-02-14T11:49:03.465Z,35.5
2023-02-14T11:50:03.466Z,35.33
2023-02-14T11:51:03.466Z,35.49
2023-02-14T11:52:03.452Z,35.75
2023-02-14T11:53:03.467Z,35.78
2023-02-14T11:54:03.468Z,35.45
2023-02-14T11:55:03.455Z,35.45
2023-02-14T11:56:03.454Z,35.54
2023-02-14T11:57:03.470Z,35.7
2023-02-14T11:58:03.470Z,35.71
2023-02-14T11:59:03.457Z,35.66
2023-02-14T12:00:03.470Z,35.83
2023-02-14T12:01:03.472Z,36.07
2023-02-14T12:02:03.471Z,36.38
2023-02-14T12:03:03.458Z,36.74
2023-02-14T12:04:03.472Z,37.19
2023-02-14T12:05:03.474Z,37.31
2023-02-14T12:06:03.473Z,37.38
2023-02-14T12:07:03.460Z,37.92
2023-02-14T12:08:03.474Z,38.1
2023-02-14T12:09:03.476Z,37.82
2023-02-14T12:10:03.475Z,37.8
2023-02-14T12:11:03.462Z,37.35
2023-02-14T12:12:03.542Z,36.64
2023-02-14T12:13:03.478Z,36.57
2023-02-14T12:14:03.463Z,36.65
2023-02-14T12:15:03.464Z,36.14
2023-02-14T12:16:03.478Z,36.04
2023-02-14T12:17:03.479Z,35.47
2023-02-14T12:18:03.465Z,35.39
2023-02-14T12:19:03.531Z,35.27
2023-02-14T12:20:03.481Z,35.19
2023-02-14T12:21:03.480Z,35.64
2023-02-14T12:22:03.467Z,35.76
2023-02-14T12:23:03.481Z,36.21
2023-02-14T12:24:03.482Z,36.8
2023-02-14T12:25:03.482Z,36.67
2023-02-14T12:26:03.469Z,36.69
2023-02-14T12:27:03.484Z,36.54
2023-02-14T12:28:03.485Z,36.2
2023-02-14T12:29:03.485Z,36.34
2023-02-14T12:30:03.471Z,36.8
2023-02-14T12:31:03.486Z,36.9
2023-02-14T12:36:03.489Z,35.04
2023-02-14T12:37:19.952Z,34.8
2023-02-14T12:38:29.959Z,34.83
2023-02-14T12:39:39.966Z,34.76
2023-02-14T12:40:49.974Z,34.89
2023-02-14T12:41:59.983Z,34.93
2023-02-14T12:42:51.463Z,35.33
2023-02-14T12:43:26.468Z,35.5
2023-02-14T12:44:03.493Z,35.48
2023-02-14T12:45:03.493Z,35.64
2023-02-14T12:46:03.479Z,36.07
2023-02-14T12:47:19.210Z,36.54
2023-02-14T12:48:10.691Z,36.99
2023-02-14T12:49:03.496Z,37.2
2023-02-14T12:50:03.481Z,37.27
2023-02-14T12:51:03.497Z,37.51
2023-02-14T12:52:03.498Z,37.98
2023-02-14T12:53:03.483Z,38.5
2023-02-14T12:54:03.483Z,38.93
2023-02-14T12:55:03.498Z,39.03
2023-02-14T12:56:03.499Z,39.53
2023-02-14T12:57:03.485Z,40.4
2023-02-14T12:58:03.485Z,41.12
2023-02-14T12:59:03.501Z,41.79
2023-02-14T13:00:03.500Z,42.18
2023-02-14T13:01:03.488Z,42.38
2023-02-14T13:02:03.502Z,42.92
2023-02-14T13:03:03.502Z,43.39
2023-02-14T13:04:03.503Z,43.32
2023-02-14T13:05:03.489Z,43.2
2023-02-14T13:06:03.503Z,42.81
2023-02-14T13:07:03.506Z,42.62
2023-02-14T13:08:03.504Z,42.44
2023-02-14T13:09:03.491Z,42.25
2023-02-14T13:10:03.505Z,42.14
2023-02-14T13:11:03.508Z,41.86
2023-02-14T13:12:03.492Z,42.06
2023-02-14T13:13:03.493Z,42.29
2023-02-14T13:14:03.507Z,42.47
2023-02-14T13:15:03.509Z,42.51
2023-02-14T13:16:03.494Z,42.54